createdAt,value
2023-06-01T00:00:12.581Z,14.19
2023-06-01T00:02:43.200Z,14.31
2023-06-01T00:05:14.010Z,14.41
2023-06-01T00:07:45.751Z,14.50
2023-06-01T00:10:33.865Z,14.55
2023-06-01T00:13:16.183Z,14.57
2023-06-01T00:15:55.333Z,14.72
2023-06-01T00:18:36.362Z,14.74
2023-06-01T00:21:07.576Z,14.74
2023-06-01T00:23:38.213Z,14.66
2023-06-01T00:26:10.962Z,14.57
2023-06-01T00:28:41.426Z,14.52
2023-06-01T00:31:11.913Z,14.60
2023-06-01T00:33:46.631Z,14.72
2023-06-01T00:36:17.146Z,14.93
2023-06-01T00:38:47.646Z,15.09
2023-06-01T00:41:19.730Z,15.14
2023-06-01T00:43:50.193Z,15.23
2023-06-01T00:46:20.747Z,15.28
2023-06-01T00:48:52.203Z,15.09
2023-06-01T00:51:23.486Z,15.41
2023-06-01T00:53:54.385Z,15.77
2023-06-01T00:56:26.776Z,16.56
2023-06-01T00:58:57.622Z,17.01
2023-06-01T01:01:29.417Z,17.38
2023-06-01T01:04:02.788Z,17.85
2023-06-01T01:06:50.678Z,18.11
2023-06-01T01:09:31.969Z,17.90
2023-06-01T01:12:07.791Z,17.93
2023-06-01T01:14:43.568Z,17.88
2023-06-01T01:17:19.433Z,17.91
2023-06-01T01:20:01.142Z,18.03
2023-06-01T01:23:08.082Z,18.67
2023-06-01T01:26:12.732Z,18.51
2023-06-01T01:28:50.536Z,18.28
2023-06-01T01:31:22.602Z,18.10
2023-06-01T01:33:57.268Z,18.34
2023-06-01T01:36:28.357Z,18.28
2023-06-01T01:38:58.888Z,18.36
2023-06-01T01:41:29.439Z,18.37
2023-06-01T01:44:02.238Z,18.24
2023-06-01T01:46:36.307Z,18.30
2023-06-01T01:49:14.825Z,18.58
2023-06-01T01:51:52.899Z,18.83
2023-06-01T01:54:24.041Z,19.05
2023-06-01T01:56:57.035Z,18.85
2023-06-01T01:59:32.772Z,18.43
2023-06-01T02:02:04.660Z,18.54
2023-06-01T02:04:35.453Z,18.63
2023-06-01T02:07:05.982Z,19.00
2023-06-01T02:09:36.424Z,19.26
2023-06-01T02:12:07.367Z,19.44
2023-06-01T02:14:39.549Z,19.62
2023-06-01T02:17:10.875Z,19.75
2023-06-01T02:19:41.390Z,19.95
2023-06-01T02:22:11.881Z,20.03
2023-06-01T02:24:42.591Z,20.09
2023-06-01T02:27:13.110Z,19.96
2023-06-01T02:29:45.216Z,19.96
2023-06-01T02:32:15.758Z,20.06
2023-06-01T02:34:46.781Z,20.10
2023-06-01T02:37:17.336Z,20.36
2023-06-01T02:39:49.325Z,20.48
2023-06-01T02:42:19.912Z,20.23
2023-06-01T02:44:52.190Z,19.99
2023-06-01T02:47:22.721Z,19.77
2023-06-01T02:49:53.266Z,19.67
2023-06-01T02:52:23.903Z,19.64
2023-06-01T02:54:54.477Z,19.48
2023-06-01T02:57:25.378Z,19.26
2023-06-01T02:59:57.566Z,18.98
2023-06-01T03:02:28.109Z,19.03
2023-06-01T03:04:58.646Z,19.51
2023-06-01T03:07:29.558Z,19.72
2023-06-01T03:10:00.118Z,19.97
2023-06-01T03:12:30.550Z,20.00
2023-06-01T03:15:02.766Z,20.21
2023-06-01T03:17:33.671Z,20.56
2023-06-01T03:20:04.537Z,20.82
2023-06-01T03:22:35.114Z,20.88
2023-06-01T03:25:08.994Z,21.10
2023-06-01T03:27:39.881Z,21.15
2023-06-01T03:30:13.519Z,21.42
2023-06-01T03:32:44.894Z,21.41
2023-06-01T03:35:16.000Z,21.42
2023-06-01T03:37:47.575Z,21.81
2023-06-01T03:40:18.208Z,22.11
2023-06-01T03:42:49.807Z,22.20
2023-06-01T03:45:21.991Z,22.05
2023-06-01T03:47:52.560Z,21.76
2023-06-01T03:50:23.260Z,21.64
2023-06-01T03:52:53.791Z,21.77
2023-06-01T03:55:24.765Z,21.97
2023-06-01T03:57:55.450Z,22.15
2023-06-01T04:00:28.089Z,22.23
2023-06-01T04:02:59.493Z,22.22
2023-06-01T04:05:30.720Z,22.32
2023-06-01T04:08:01.349Z,22.39
2023-06-01T04:10:31.979Z,22.19
2023-06-01T04:13:02.639Z,22.15
2023-06-01T04:15:35.016Z,22.13
2023-06-01T04:18:05.535Z,22.07
2023-06-01T04:20:36.907Z,22.20
2023-06-01T04:23:07.508Z,22.09
2023-06-01T04:25:41.103Z,22.21
2023-06-01T04:28:13.409Z,22.11
2023-06-01T04:30:46.193Z,21.93
2023-06-01T04:33:18.001Z,21.64
2023-06-01T04:35:48.720Z,21.32
2023-06-01T04:38:20.627Z,21.18
2023-06-01T04:40:51.475Z,20.91
2023-06-01T04:43:22.340Z,20.58
2023-06-01T04:45:57.842Z,20.44
2023-06-01T04:48:32.956Z,20.46
2023-06-01T04:51:03.723Z,20.38
2023-06-01T04:53:34.364Z,20.29
2023-06-01T04:56:04.951Z,20.06
2023-06-01T04:58:38.512Z,19.82
2023-06-01T05:01:10.678Z,19.70
2023-06-01T05:03:41.281Z,19.59
2023-06-01T05:06:12.676Z,19.45
2023-06-01T05:08:43.339Z,19.29
2023-06-01T05:11:14.459Z,19.24
2023-06-01T05:13:46.279Z,19.13
2023-06-01T05:16:18.594Z,18.98
2023-06-01T05:18:49.259Z,18.69
2023-06-01T05:21:20.105Z,18.53
2023-06-01T05:23:50.726Z,18.30
2023-06-01T05:26:21.248Z,18.01
2023-06-01T05:28:51.918Z,17.81
2023-06-01T05:31:24.290Z,17.63
2023-06-01T05:33:54.852Z,17.51
2023-06-01T05:36:25.365Z,17.55
2023-06-01T05:38:56.146Z,17.53
2023-06-01T05:41:27.952Z,17.47
2023-06-01T05:43:58.594Z,17.42
2023-06-01T05:46:30.823Z,17.00
2023-06-01T05:49:01.412Z,17.14
2023-06-01T05:51:32.005Z,17.01
2023-06-01T05:54:02.431Z,16.84
2023-06-01T05:56:33.070Z,16.72
2023-06-01T05:59:03.949Z,16.26
2023-06-01T06:01:36.203Z,16.34
2023-06-01T06:04:06.873Z,15.90
2023-06-01T06:06:37.710Z,15.20
2023-06-01T06:09:08.280Z,15.07
2023-06-01T06:11:40.228Z,14.87
2023-06-01T06:14:15.327Z,14.66
2023-06-01T06:16:48.030Z,14.72
2023-06-01T06:19:18.926Z,14.73
2023-06-01T06:21:52.187Z,14.55
2023-06-01T06:24:22.730Z,14.40
2023-06-01T06:26:53.340Z,14.41
2023-06-01T06:29:23.966Z,14.34
2023-06-01T06:31:56.193Z,14.00
2023-06-01T06:34:26.738Z,13.89
2023-06-01T06:36:57.821Z,13.60
2023-06-01T06:39:28.470Z,13.41
2023-06-01T06:41:59.026Z,13.45
2023-06-01T06:44:29.700Z,13.46
2023-06-01T06:47:03.288Z,13.29
2023-06-01T06:49:33.790Z,13.07
2023-06-01T06:52:04.425Z,12.93
2023-06-01T06:54:35.046Z,12.77
2023-06-01T06:57:06.020Z,12.67
2023-06-01T06:59:37.197Z,12.78
2023-06-01T07:02:10.264Z,12.88
2023-06-01T07:04:41.036Z,13.01
2023-06-01T07:07:11.600Z,12.99
2023-06-01T07:09:42.793Z,13.01
2023-06-01T07:12:13.516Z,12.93
2023-06-01T07:14:44.198Z,13.01
2023-06-01T07:17:16.422Z,13.13
2023-06-01T07:19:47.506Z,13.16
2023-06-01T07:22:19.016Z,13.22
2023-06-01T07:24:49.615Z,13.19
2023-06-01T07:27:22.402Z,13.19
2023-06-01T07:29:56.838Z,13.26
2023-06-01T07:32:29.401Z,13.02
2023-06-01T07:35:01.186Z,13.35
2023-06-01T07:37:31.820Z,13.35
2023-06-01T07:40:02.273Z,13.31
2023-06-01T07:42:32.738Z,12.97
2023-06-01T07:45:04.393Z,13.11
2023-06-01T07:47:37.100Z,13.14
2023-06-01T07:50:09.234Z,13.09
2023-06-01T07:52:40.549Z,12.99
2023-06-01T07:55:12.683Z,12.85
2023-06-01T07:57:43.168Z,12.83
2023-06-01T08:00:15.134Z,12.67
2023-06-01T08:02:47.713Z,12.41
2023-06-01T08:05:20.244Z,12.28
2023-06-01T08:07:51.027Z,12.22
2023-06-01T08:10:21.644Z,12.09
2023-06-01T08:12:52.641Z,11.78
2023-06-01T08:15:23.187Z,11.78
2023-06-01T08:17:55.688Z,11.73
2023-06-01T08:20:28.474Z,11.68
2023-06-01T08:22:59.750Z,11.59
2023-06-01T08:25:30.292Z,11.55
2023-06-01T08:28:01.074Z,11.55
2023-06-01T08:30:31.508Z,11.66
2023-06-01T08:33:04.808Z,11.64
2023-06-01T08:35:36.423Z,11.53
2023-06-01T08:38:07.170Z,11.64
2023-06-01T08:40:38.286Z,11.71
2023-06-01T08:43:15.659Z,11.87
2023-06-01T08:45:49.077Z,11.96
2023-06-01T08:48:24.252Z,11.98
2023-06-01T08:50:56.121Z,12.04
2023-06-01T08:53:26.645Z,12.14
2023-06-01T08:55:57.794Z,12.14
2023-06-01T08:58:29.513Z,12.29
2023-06-01T09:01:04.795Z,11.60
2023-06-01T09:03:37.777Z,12.45
2023-06-01T09:06:13.319Z,12.47
2023-06-01T09:08:54.061Z,12.18
2023-06-01T09:11:25.921Z,12.45
2023-06-01T09:14:00.589Z,12.47
2023-06-01T09:20:03.418Z,12.50
2023-06-01T09:22:47.601Z,12.53
2023-06-01T09:25:28.778Z,12.58
2023-06-01T09:28:04.386Z,12.51
2023-06-01T09:31:14.489Z,12.49
2023-06-01T09:34:05.261Z,12.38
2023-06-01T09:36:44.038Z,12.37
2023-06-01T09:39:19.446Z,12.37
2023-06-01T09:41:55.866Z,12.34
2023-06-01T09:44:41.020Z,12.33
2023-06-01T09:47:16.397Z,12.35
2023-06-01T09:50:03.759Z,12.38
2023-06-01T09:52:40.009Z,12.40
2023-06-01T09:55:24.024Z,12.34
2023-06-01T09:57:56.883Z,12.02
2023-06-01T10:00:29.623Z,12.38
2023-06-01T10:03:03.504Z,12.41
2023-06-01T10:05:36.075Z,12.36
2023-06-01T10:08:14.080Z,12.22
2023-06-01T10:10:52.318Z,11.81
2023-06-01T10:13:28.164Z,12.33
2023-06-01T10:16:14.018Z,11.86
2023-06-01T10:18:48.105Z,12.28
2023-06-01T10:21:20.893Z,12.20
2023-06-01T10:23:56.863Z,12.22
2023-06-01T10:26:34.713Z,12.25
2023-06-01T10:29:27.489Z,11.95
2023-06-01T10:32:28.004Z,12.15
2023-06-01T10:35:13.036Z,12.21
2023-06-01T10:37:45.618Z,12.08
2023-06-01T10:40:48.640Z,12.06
2023-06-01T10:46:53.938Z,11.84
2023-06-01T10:50:00.034Z,12.04
2023-06-01T10:52:32.250Z,11.96
2023-06-01T10:55:49.760Z,12.03
2023-06-01T10:58:30.891Z,12.07
2023-06-01T11:01:50.551Z,11.83
2023-06-01T11:04:58.153Z,12.08
2023-06-01T11:07:47.188Z,12.05
2023-06-01T11:11:07.167Z,12.05
2023-06-01T11:13:42.948Z,11.96
2023-06-01T11:16:59.505Z,12.00
2023-06-01T11:19:35.110Z,11.96
2023-06-01T11:22:19.054Z,11.87
2023-06-01T11:24:58.161Z,11.96
2023-06-01T11:27:38.101Z,11.87
2023-06-01T11:30:16.761Z,12.06
2023-06-01T11:32:56.092Z,12.11
2023-06-01T11:35:32.437Z,12.05
2023-06-01T11:38:03.593Z,11.77
2023-06-01T11:40:39.589Z,12.01
2023-06-01T11:43:22.789Z,12.09
2023-06-01T11:46:21.234Z,12.07
2023-06-01T11:49:09.030Z,12.03
2023-06-01T11:51:50.149Z,12.01
2023-06-01T11:54:30.846Z,12.01
2023-06-01T11:57:02.560Z,12.03
2023-06-01T12:02:49.517Z,11.87
2023-06-01T12:05:28.945Z,12.00
2023-06-01T12:08:06.322Z,12.06
2023-06-01T12:10:38.593Z,12.00
2023-06-01T12:13:13.250Z,12.02
2023-06-01T12:15:51.632Z,11.98
2023-06-01T12:18:47.149Z,12.05
2023-06-01T12:21:30.204Z,12.01
2023-06-01T12:24:14.699Z,12.01
2023-06-01T12:27:03.625Z,11.99
2023-06-01T12:29:44.823Z,12.01
2023-06-01T12:32:19.943Z,12.01
2023-06-01T12:35:12.670Z,11.93
2023-06-01T12:38:08.052Z,11.70
2023-06-01T12:40:41.888Z,11.96
2023-06-01T12:43:22.754Z,11.96
2023-06-01T12:45:52.810Z,12.03
2023-06-01T12:48:54.859Z,12.03
2023-06-01T12:51:27.360Z,12.05
2023-06-01T12:54:13.396Z,12.09
2023-06-01T12:56:45.441Z,11.93
2023-06-01T12:59:17.335Z,11.84
2023-06-01T13:02:52.127Z,12.16
2023-06-01T13:05:23.001Z,12.16
2023-06-01T13:08:04.227Z,12.12
2023-06-01T13:11:20.071Z,12.08
2023-06-01T13:14:07.707Z,12.03
2023-06-01T13:16:39.486Z,12.03
2023-06-01T13:19:14.452Z,12.02
2023-06-01T13:21:46.384Z,12.03
2023-06-01T13:24:20.279Z,12.05
2023-06-01T13:26:53.304Z,11.89
2023-06-01T13:29:25.289Z,12.03
2023-06-01T13:31:57.851Z,12.02
2023-06-01T13:34:29.839Z,11.97
2023-06-01T13:37:01.647Z,11.97
2023-06-01T13:39:35.972Z,12.00
2023-06-01T13:42:09.184Z,11.93
2023-06-01T13:44:40.846Z,12.00
2023-06-01T13:47:12.998Z,11.99
2023-06-01T13:49:44.529Z,11.95
2023-06-01T13:52:16.481Z,11.93
2023-06-01T13:54:50.547Z,11.85
2023-06-01T13:57:22.305Z,11.80
2023-06-01T13:59:53.381Z,11.75
2023-06-01T14:02:24.981Z,11.61
2023-06-01T14:05:07.258Z,11.74
2023-06-01T14:07:40.569Z,11.74
2023-06-01T14:10:15.756Z,11.71
2023-06-01T14:12:50.526Z,11.81
2023-06-01T14:15:21.982Z,11.87
2023-06-01T14:17:54.126Z,11.74
2023-06-01T14:20:25.118Z,11.69
2023-06-01T14:22:56.598Z,11.83
2023-06-01T14:25:28.958Z,11.76
2023-06-01T14:27:59.975Z,11.85
2023-06-01T14:30:42.357Z,11.80
2023-06-01T14:33:13.415Z,11.79
2023-06-01T14:35:51.982Z,11.44
2023-06-01T14:38:24.962Z,11.69
2023-06-01T14:41:01.730Z,11.69
2023-06-01T14:43:34.110Z,11.70
2023-06-01T14:46:05.364Z,11.66
2023-06-01T14:48:37.934Z,11.16
2023-06-01T14:51:12.876Z,11.49
2023-06-01T14:53:48.753Z,11.50
2023-06-01T14:56:24.201Z,11.33
2023-06-01T14:58:58.313Z,11.49
2023-06-01T15:01:34.623Z,11.48
2023-06-01T15:04:05.391Z,11.50
2023-06-01T15:06:38.470Z,11.44
2023-06-01T15:09:10.944Z,11.39
2023-06-01T15:11:46.273Z,11.39
2023-06-01T15:14:19.053Z,11.27
2023-06-01T15:16:54.655Z,11.16
2023-06-01T15:19:25.921Z,11.04
2023-06-01T15:22:02.392Z,10.97
2023-06-01T15:24:35.287Z,10.99
2023-06-01T15:27:09.744Z,10.93
2023-06-01T15:29:40.548Z,10.83
2023-06-01T15:32:14.328Z,10.78
2023-06-01T15:34:45.583Z,10.76
2023-06-01T15:37:29.912Z,10.63
2023-06-01T15:40:17.545Z,10.67
2023-06-01T15:43:12.179Z,10.58
2023-06-01T15:45:45.277Z,10.56
2023-06-01T15:48:19.092Z,10.54
2023-06-01T15:50:50.082Z,10.55
2023-06-01T15:53:21.135Z,10.40
2023-06-01T15:55:51.807Z,10.59
2023-06-01T15:58:26.509Z,10.34
2023-06-01T16:01:11.848Z,10.83
2023-06-01T16:03:49.388Z,10.78
2023-06-01T16:06:22.266Z,10.85
2023-06-01T16:08:54.232Z,10.85
2023-06-01T16:11:24.935Z,10.77
2023-06-01T16:13:57.363Z,10.56
2023-06-01T16:16:30.394Z,10.57
2023-06-01T16:19:01.098Z,10.60
2023-06-01T16:21:33.767Z,10.59
2023-06-01T16:24:04.619Z,10.61
2023-06-01T16:26:35.300Z,10.57
2023-06-01T16:29:07.585Z,10.30
2023-06-01T16:31:38.193Z,10.52
2023-06-01T16:34:09.881Z,10.53
2023-06-01T16:36:42.471Z,10.44
2023-06-01T16:39:14.896Z,10.31
2023-06-01T16:41:45.674Z,10.12
2023-06-01T16:44:19.116Z,10.13
2023-06-01T16:46:52.954Z,10.15
2023-06-01T16:49:24.342Z,10.15
2023-06-01T16:51:56.404Z,10.13
2023-06-01T16:54:34.168Z,10.11
2023-06-01T16:57:05.103Z,10.02
2023-06-01T16:59:38.117Z,9.71
2023-06-01T17:02:08.963Z,10.00
2023-06-01T17:04:45.347Z,9.76
2023-06-01T17:07:16.646Z,10.08
2023-06-01T17:09:48.566Z,9.97
2023-06-01T17:12:22.159Z,10.03
2023-06-01T17:14:57.346Z,9.92
2023-06-01T17:17:28.098Z,10.05
2023-06-01T17:20:01.914Z,10.01
2023-06-01T17:22:38.532Z,9.98
2023-06-01T17:25:13.959Z,9.87
2023-06-01T17:27:45.568Z,9.84
2023-06-01T17:30:18.107Z,9.90
2023-06-01T17:32:48.852Z,9.95
2023-06-01T17:35:19.805Z,9.88
2023-06-01T17:37:50.489Z,9.84
2023-06-01T17:40:21.276Z,9.72
2023-06-01T17:42:52.030Z,9.79
2023-06-01T17:45:24.322Z,9.76
2023-06-01T17:47:55.032Z,9.67
2023-06-01T17:50:25.884Z,9.61
2023-06-01T17:52:56.657Z,9.50
2023-06-01T17:55:28.400Z,9.63
2023-06-01T17:58:00.458Z,9.60
2023-06-01T18:00:36.206Z,9.40
2023-06-01T18:03:07.348Z,9.48
2023-06-01T18:05:38.779Z,9.47
2023-06-01T18:08:11.919Z,9.32
2023-06-01T18:10:43.446Z,9.32
2023-06-01T18:13:14.148Z,9.21
2023-06-01T18:15:49.026Z,8.80
2023-06-01T18:18:22.225Z,8.89
2023-06-01T18:20:53.639Z,8.81
2023-06-01T18:23:24.230Z,8.95
2023-06-01T18:25:55.350Z,8.80
2023-06-01T18:28:26.008Z,8.90
2023-06-01T18:30:59.353Z,8.88
2023-06-01T18:33:30.283Z,8.92
2023-06-01T18:36:01.405Z,8.91
2023-06-01T18:38:32.677Z,8.90
2023-06-01T18:41:04.743Z,8.87
2023-06-01T18:43:36.329Z,8.82
2023-06-01T18:46:10.172Z,8.88
2023-06-01T18:48:43.587Z,8.56
2023-06-01T18:51:16.491Z,8.78
2023-06-01T18:53:47.763Z,8.73
2023-06-01T18:56:19.416Z,8.72
2023-06-01T18:58:50.489Z,8.42
2023-06-01T19:01:22.790Z,8.76
2023-06-01T19:03:55.001Z,8.73
2023-06-01T19:06:25.814Z,8.62
2023-06-01T19:08:56.801Z,8.77
2023-06-01T19:11:27.268Z,8.96
2023-06-01T19:13:57.852Z,9.27
2023-06-01T19:16:32.356Z,9.43
2023-06-01T19:19:05.489Z,9.53
2023-06-01T19:21:37.435Z,9.56
2023-06-01T19:24:12.520Z,9.63
2023-06-01T19:26:43.739Z,9.02
2023-06-01T19:29:15.298Z,9.54
2023-06-01T19:31:49.062Z,9.60
2023-06-01T19:34:19.686Z,9.92
2023-06-01T19:36:56.548Z,10.10
2023-06-01T19:39:39.171Z,10.25
2023-06-01T19:42:28.495Z,10.48
2023-06-01T19:45:02.789Z,10.68
2023-06-01T19:47:47.576Z,10.74
2023-06-01T19:50:46.510Z,11.08
2023-06-01T19:53:18.228Z,11.25
2023-06-01T19:55:49.209Z,11.34
2023-06-01T19:58:20.821Z,11.41
2023-06-01T20:00:51.525Z,11.48
2023-06-01T20:03:23.692Z,11.58
2023-06-01T20:05:55.407Z,11.43
2023-06-01T20:08:26.680Z,11.54
2023-06-01T20:10:57.099Z,11.72
2023-06-01T20:13:27.535Z,12.24
2023-06-01T20:15:58.001Z,12.41
2023-06-01T20:18:32.110Z,12.54
2023-06-01T20:21:02.685Z,12.69
2023-06-01T20:23:35.527Z,12.72
2023-06-01T20:26:06.360Z,12.68
2023-06-01T20:28:58.073Z,12.83
2023-06-01T20:31:29.497Z,12.90
2023-06-01T20:34:01.903Z,12.92
2023-06-01T20:36:34.573Z,13.05
2023-06-01T20:39:05.457Z,13.15
2023-06-01T20:41:37.395Z,13.34
2023-06-01T20:44:08.160Z,13.53
2023-06-01T20:46:38.664Z,13.75
2023-06-01T20:49:11.046Z,13.94
2023-06-01T20:51:43.420Z,13.84
2023-06-01T20:54:15.687Z,13.61
2023-06-01T20:56:47.232Z,13.64
2023-06-01T20:59:19.514Z,13.68
2023-06-01T21:01:51.142Z,13.56
2023-06-01T21:04:24.816Z,13.36
2023-06-01T21:06:55.691Z,13.29
2023-06-01T21:09:27.098Z,13.23
2023-06-01T21:11:59.804Z,13.28
2023-06-01T21:14:30.458Z,13.17
2023-06-01T21:17:01.181Z,13.03
2023-06-01T21:19:34.346Z,13.01
2023-06-01T21:22:05.022Z,13.07
2023-06-01T21:24:35.661Z,13.19
2023-06-01T21:27:06.309Z,13.25
2023-06-01T21:29:37.490Z,13.25
2023-06-01T21:32:08.861Z,13.81
2023-06-01T21:34:40.957Z,14.12
2023-06-01T21:37:11.652Z,14.38
2023-06-01T21:39:42.164Z,14.48
2023-06-01T21:42:12.905Z,14.77
2023-06-01T21:44:43.431Z,15.04
2023-06-01T21:47:16.799Z,15.32
2023-06-01T21:49:48.991Z,15.47
2023-06-01T21:52:19.549Z,15.31
2023-06-01T21:54:50.069Z,15.45
2023-06-01T21:57:20.666Z,15.16
2023-06-01T21:59:52.921Z,15.10
2023-06-01T22:02:23.744Z,15.16
2023-06-01T22:04:56.016Z,15.34
2023-06-01T22:07:29.568Z,15.53
2023-06-01T22:10:00.645Z,15.65
2023-06-01T22:12:31.317Z,15.70
2023-06-01T22:15:02.860Z,15.83
2023-06-01T22:17:33.496Z,15.88
2023-06-01T22:20:06.090Z,16.11
2023-06-01T22:22:37.739Z,15.40
2023-06-01T22:25:09.262Z,15.83
2023-06-01T22:27:42.851Z,15.63
2023-06-01T22:30:14.187Z,15.72
2023-06-01T22:32:44.890Z,15.62
2023-06-01T22:35:17.240Z,15.24
2023-06-01T22:37:47.895Z,15.15
2023-06-01T22:40:18.621Z,15.01
2023-06-01T22:42:50.553Z,14.99
2023-06-01T22:45:23.003Z,14.91
2023-06-01T22:47:53.740Z,14.67
2023-06-01T22:50:26.351Z,14.61
2023-06-01T22:52:57.029Z,14.52
2023-06-01T22:55:27.692Z,14.49
2023-06-01T22:57:58.442Z,14.57
2023-06-01T23:00:29.793Z,14.55
2023-06-01T23:03:00.519Z,14.65
2023-06-01T23:05:41.580Z,14.79
2023-06-01T23:08:21.494Z,14.77
2023-06-01T23:10:52.523Z,14.40
2023-06-01T23:13:25.002Z,14.48
2023-06-01T23:15:56.674Z,14.73
2023-06-01T23:18:27.850Z,15.31
2023-06-01T23:21:01.249Z,15.39
2023-06-01T23:23:32.805Z,15.31
2023-06-01T23:26:03.639Z,15.28
2023-06-01T23:28:34.524Z,15.43
2023-06-01T23:31:05.251Z,15.34
2023-06-01T23:33:35.928Z,15.85
2023-06-01T23:36:08.243Z,16.09
2023-06-01T23:38:40.321Z,16.29
2023-06-01T23:41:10.988Z,16.59
2023-06-01T23:43:41.897Z,16.92
2023-06-01T23:46:12.748Z,17.22
2023-06-01T23:48:43.695Z,17.27
2023-06-01T23:51:15.985Z,17.10
2023-06-01T23:53:46.652Z,16.97
2023-06-01T23:56:17.363Z,17.29
2023-06-01T23:58:48.077Z,17.27
